METAR Data
IDs: Format: Raw Decoded Include TAF

Data at: 1943 UTC 26 Sep 2021

LOWL 261920Z AUTO 10003KT 050V130 9999 NCD 17/14 Q1017 NOSIG